createdAt,value
2023-03-04T00:02:12.534Z,100629.16
2023-03-04T00:04:38.930Z,100628.25
2023-03-04T00:07:05.319Z,100632.63
2023-03-04T00:09:31.713Z,100634.41
2023-03-04T00:11:58.055Z,100631.78
2023-03-04T00:14:24.455Z,100626.53
2023-03-04T00:16:50.870Z,100633.53
2023-03-04T00:19:17.252Z,100631.81
2023-03-04T00:21:43.718Z,100629.16
2023-03-04T00:24:10.100Z,100634.44
2023-03-04T00:26:36.635Z,100632.66
2023-03-04T00:29:03.013Z,100630.91
2023-03-04T00:31:29.399Z,100631.81
2023-03-04T00:33:55.769Z,100630.03
2023-03-04T00:36:22.160Z,100633.53
2023-03-04T00:38:48.551Z,100622.19
2023-03-04T00:41:14.892Z,100618.66
2023-03-04T00:43:41.281Z,100620.38
2023-03-04T00:46:07.809Z,100622.09
2023-03-04T00:48:34.250Z,100621.16
2023-03-04T00:51:00.616Z,100618.53
2023-03-04T00:53:27.069Z,100612.41
2023-03-04T00:55:53.418Z,100610.69
2023-03-04T00:58:19.768Z,100618.53
2023-03-04T01:00:46.143Z,100609.03
2023-03-04T01:03:12.587Z,100613.38
2023-03-04T01:05:39.220Z,100609.88
2023-03-04T01:10:35.905Z,100609.06
2023-03-04T01:13:02.345Z,100613.44
2023-03-04T01:15:35.196Z,100605.66
2023-03-04T01:18:01.661Z,100608.19
2023-03-04T01:20:30.436Z,100604.72
2023-03-04T01:22:56.788Z,100602.06
2023-03-04T01:25:24.699Z,100599.50
2023-03-04T01:27:51.115Z,100595.94
2023-03-04T01:30:19.789Z,100600.41
2023-03-04T01:32:46.172Z,100597.69
2023-03-04T01:35:14.888Z,100596.88
2023-03-04T01:37:41.237Z,100591.63
2023-03-04T01:40:10.838Z,100588.22
2023-03-04T01:42:37.331Z,100582.06
2023-03-04T01:45:06.895Z,100589.06
2023-03-04T01:47:35.710Z,100582.06
2023-03-04T01:50:11.414Z,100577.78
2023-03-04T01:52:39.959Z,100573.41
2023-03-04T01:55:21.186Z,100573.53
2023-03-04T01:57:49.822Z,100568.25
2023-03-04T02:00:30.944Z,100570.97
2023-03-04T02:03:04.142Z,100573.50
2023-03-04T02:05:31.035Z,100562.13
2023-03-04T02:07:59.455Z,100563.97
2023-03-04T02:10:26.012Z,100563.09
2023-03-04T02:12:55.165Z,100559.72
2023-03-04T02:15:22.051Z,100557.94
2023-03-04T02:17:51.293Z,100559.78
2023-03-04T02:20:45.605Z,100557.16
2023-03-04T02:23:45.200Z,100561.56
2023-03-04T02:26:18.800Z,100552.75
2023-03-04T02:28:49.042Z,100555.38
2023-03-04T02:31:28.487Z,100550.25
2023-03-04T02:34:00.268Z,100541.47
2023-03-04T02:36:27.479Z,100545.78
2023-03-04T02:39:02.361Z,100539.81
2023-03-04T02:41:30.406Z,100543.19
2023-03-04T02:43:59.086Z,100550.19
2023-03-04T02:46:25.495Z,100544.03
2023-03-04T02:48:54.261Z,100539.63
2023-03-04T02:51:20.756Z,100536.13
2023-03-04T02:53:49.211Z,100530.03
2023-03-04T02:59:25.615Z,100530.03
2023-03-04T03:01:53.027Z,100534.41
2023-03-04T03:04:21.436Z,100533.56
2023-03-04T03:06:48.128Z,100529.16
2023-03-04T03:09:14.706Z,100526.50
2023-03-04T03:11:41.294Z,100516.91
2023-03-04T03:14:08.105Z,100516.00
2023-03-04T03:16:34.770Z,100519.44
2023-03-04T03:19:01.853Z,100526.41
2023-03-04T03:21:28.362Z,100511.53
2023-03-04T03:23:54.865Z,100508.97
2023-03-04T03:26:21.493Z,100516.78
2023-03-04T03:28:48.191Z,100509.78
2023-03-04T03:31:14.710Z,100501.09
2023-03-04T03:33:41.655Z,100511.56
2023-03-04T03:36:08.593Z,100509.00
2023-03-04T03:38:35.367Z,100508.19
2023-03-04T03:41:01.971Z,100503.06
2023-03-04T03:43:28.567Z,100498.75
2023-03-04T03:45:55.154Z,100502.25
2023-03-04T03:48:21.718Z,100497.91
2023-03-04T03:50:48.261Z,100496.22
2023-03-04T03:53:14.890Z,100500.59
2023-03-04T03:55:41.431Z,100492.72
2023-03-04T03:58:07.968Z,100493.63
2023-03-04T04:00:34.598Z,100491.88
2023-03-04T04:03:01.326Z,100490.09
2023-03-04T04:05:27.818Z,100480.59
2023-03-04T04:07:54.429Z,100487.53
2023-03-04T04:10:21.674Z,100495.44
2023-03-04T04:12:48.388Z,100491.00
2023-03-04T04:15:15.058Z,100487.66
2023-03-04T04:17:41.601Z,100493.72
2023-03-04T04:20:08.954Z,100492.03
2023-03-04T04:22:35.536Z,100489.41
2023-03-04T04:25:02.036Z,100492.91
2023-03-04T04:27:28.563Z,100482.41
2023-03-04T04:29:55.021Z,100484.16
2023-03-04T04:32:21.651Z,100491.16
2023-03-04T04:34:48.211Z,100494.66
2023-03-04T04:37:14.943Z,100488.53
2023-03-04T04:39:41.504Z,100496.41
2023-03-04T04:42:10.452Z,100489.41
2023-03-04T04:44:38.971Z,100496.41
2023-03-04T04:47:07.267Z,100495.56
2023-03-04T04:49:33.978Z,100490.31
2023-03-04T04:52:00.476Z,100489.41
2023-03-04T04:54:27.179Z,100495.50
2023-03-04T04:56:53.750Z,100491.97
2023-03-04T04:59:20.262Z,100492.78
2023-03-04T05:01:46.995Z,100490.19
2023-03-04T05:04:13.541Z,100489.31
2023-03-04T05:06:40.186Z,100491.94
2023-03-04T05:09:07.213Z,100489.34
2023-03-04T05:11:34.356Z,100485.06
2023-03-04T05:14:00.840Z,100484.22
2023-03-04T05:16:27.471Z,100483.38
2023-03-04T05:18:54.103Z,100482.56
2023-03-04T05:21:20.767Z,100478.22
2023-03-04T05:23:47.545Z,100476.53
2023-03-04T05:26:16.908Z,100476.63
2023-03-04T05:28:44.163Z,100478.38
2023-03-04T05:31:10.898Z,100477.53
2023-03-04T05:33:37.830Z,100483.66
2023-03-04T05:36:06.005Z,100476.72
2023-03-04T05:38:33.017Z,100479.31
2023-03-04T05:41:02.779Z,100470.69
2023-03-04T05:43:29.999Z,100474.13
2023-03-04T05:45:57.204Z,100472.47
2023-03-04T05:48:24.113Z,100474.25
2023-03-04T05:50:55.252Z,100474.34
2023-03-04T05:53:21.903Z,100469.09
2023-03-04T05:55:49.080Z,100475.25
2023-03-04T05:58:16.459Z,100468.38
2023-03-04T06:00:43.203Z,100478.84
2023-03-04T06:03:15.793Z,100482.47
2023-03-04T06:05:42.443Z,100473.69
2023-03-04T06:08:08.963Z,100481.59
2023-03-04T06:10:35.469Z,100472.88
2023-03-04T06:13:02.020Z,100477.22
2023-03-04T06:15:28.596Z,100485.97
2023-03-04T06:17:55.025Z,100475.50
2023-03-04T06:20:21.543Z,100475.50
2023-03-04T06:22:48.089Z,100480.72
2023-03-04T06:25:14.588Z,100479.91
2023-03-04T06:27:41.252Z,100482.56
2023-03-04T06:30:08.648Z,100485.19
2023-03-04T06:32:35.308Z,100481.69
2023-03-04T06:35:01.851Z,100476.44
2023-03-04T06:37:28.243Z,100483.47
2023-03-04T06:39:56.105Z,100488.72
2023-03-04T06:42:22.620Z,100486.94
2023-03-04T06:44:49.719Z,100482.56
2023-03-04T06:47:16.660Z,100479.94
2023-03-04T06:49:43.163Z,100490.41
2023-03-04T06:52:12.114Z,100484.31
2023-03-04T06:54:39.802Z,100490.41
2023-03-04T06:57:07.416Z,100493.03
2023-03-04T06:59:34.228Z,100497.34
2023-03-04T07:02:00.892Z,100498.22
2023-03-04T07:04:27.396Z,100503.47
2023-03-04T07:06:54.068Z,100499.94
2023-03-04T07:09:20.576Z,100495.59
2023-03-04T07:11:46.996Z,100492.94
2023-03-04T07:14:14.156Z,100497.31
2023-03-04T07:16:40.801Z,100493.88
2023-03-04T07:19:07.524Z,100488.63
2023-03-04T07:21:34.076Z,100498.22
2023-03-04T07:24:00.785Z,100493.03
2023-03-04T07:26:27.377Z,100500.91
2023-03-04T07:28:54.586Z,100505.19
2023-03-04T07:31:30.044Z,100504.31
2023-03-04T07:33:59.342Z,100511.22
2023-03-04T07:36:26.585Z,100511.16
2023-03-04T07:38:57.158Z,100514.66
2023-03-04T07:41:25.342Z,100511.16
2023-03-04T07:43:52.044Z,100518.06
2023-03-04T07:46:19.283Z,100514.56
2023-03-04T07:48:46.031Z,100517.09
2023-03-04T07:51:17.058Z,100513.59
2023-03-04T07:53:46.063Z,100518.84
2023-03-04T07:56:18.218Z,100507.50
2023-03-04T07:58:45.174Z,100508.31
2023-03-04T08:01:17.589Z,100507.44
2023-03-04T08:03:44.691Z,100509.97
2023-03-04T08:06:13.340Z,100511.69
2023-03-04T08:08:40.365Z,100498.59
2023-03-04T08:11:09.480Z,100497.66
2023-03-04T08:13:36.244Z,100497.56
2023-03-04T08:16:02.892Z,100496.66
2023-03-04T08:18:29.516Z,100502.72
2023-03-04T08:20:56.236Z,100500.03
2023-03-04T08:23:23.026Z,100499.19
2023-03-04T08:25:49.652Z,100493.91
2023-03-04T08:28:18.816Z,100497.38
2023-03-04T08:30:45.555Z,100496.47
2023-03-04T08:33:12.203Z,100493.84
2023-03-04T08:35:40.497Z,100496.41
2023-03-04T08:38:07.372Z,100488.50
2023-03-04T08:40:33.952Z,100493.63
2023-03-04T08:43:00.874Z,100496.22
2023-03-04T08:45:27.612Z,100496.16
2023-03-04T08:47:54.055Z,100499.63
2023-03-04T08:50:22.504Z,100504.03
2023-03-04T08:52:49.385Z,100503.13
2023-03-04T08:55:16.310Z,100495.31
2023-03-04T09:00:21.211Z,100515.34
2023-03-04T09:02:47.766Z,100511.03
2023-03-04T09:05:14.308Z,100508.41
2023-03-04T09:07:40.883Z,100506.69
2023-03-04T09:10:08.001Z,100507.50
2023-03-04T09:12:34.563Z,100503.97
2023-03-04T09:15:10.644Z,100507.34
2023-03-04T09:17:39.097Z,100510.66
2023-03-04T09:20:10.107Z,100502.59
2023-03-04T09:22:38.627Z,100503.16
2023-03-04T09:25:07.363Z,100494.94
2023-03-04T09:27:35.454Z,100498.91
2023-03-04T09:30:02.018Z,100509.81
2023-03-04T09:32:28.654Z,100503.38
2023-03-04T09:34:55.280Z,100505.66
2023-03-04T09:37:21.724Z,100500.16
2023-03-04T09:39:50.051Z,100490.41
2023-03-04T09:42:47.448Z,100500.09
2023-03-04T09:45:20.310Z,100506.97
2023-03-04T09:47:49.029Z,100502.50
2023-03-04T09:50:15.540Z,100504.22
2023-03-04T09:52:47.876Z,100506.91
2023-03-04T09:55:22.445Z,100509.53
2023-03-04T09:58:26.534Z,100500.84
2023-03-04T10:01:05.100Z,100499.75
2023-03-04T10:03:48.203Z,100502.22
2023-03-04T10:06:20.438Z,100495.81
2023-03-04T10:08:56.027Z,100494.56
2023-03-04T10:11:37.322Z,100496.09
2023-03-04T10:14:32.974Z,100494.00
2023-03-04T10:17:17.597Z,100497.19
2023-03-04T10:19:51.111Z,100490.66
2023-03-04T10:22:29.183Z,100488.81
2023-03-04T10:24:57.842Z,100495.50
2023-03-04T10:27:26.011Z,100491.66
2023-03-04T10:29:52.580Z,100500.25
2023-03-04T10:32:21.176Z,100496.56
2023-03-04T10:34:47.734Z,100492.81
2023-03-04T10:37:14.417Z,100496.19
2023-03-04T10:39:46.630Z,100493.41
2023-03-04T10:42:15.946Z,100492.25
2023-03-04T10:44:51.316Z,100487.69
2023-03-04T10:47:17.970Z,100479.69
2023-03-04T10:49:56.030Z,100476.13
2023-03-04T10:52:46.692Z,100467.13
2023-03-04T10:55:24.728Z,100461.41
2023-03-04T10:57:57.705Z,100470.34
2023-03-04T11:00:29.133Z,100466.88
2023-03-04T11:03:18.196Z,100461.59
2023-03-04T11:05:44.715Z,100459.69
2023-03-04T11:08:19.242Z,100466.06
2023-03-04T11:10:46.266Z,100459.47
2023-03-04T11:13:26.633Z,100444.00
2023-03-04T11:16:05.135Z,100453.22
2023-03-04T11:19:06.488Z,100461.91
2023-03-04T11:21:40.370Z,100466.81
2023-03-04T11:24:27.626Z,100466.66
2023-03-04T11:27:10.300Z,100456.72
2023-03-04T11:29:55.665Z,100454.69
2023-03-04T11:32:27.937Z,100452.41
2023-03-04T11:35:07.730Z,100452.94
2023-03-04T11:37:41.199Z,100458.31
2023-03-04T11:40:28.864Z,100452.53
2023-03-04T11:43:30.490Z,100452.63
2023-03-04T11:46:21.978Z,100449.06
2023-03-04T11:49:14.454Z,100448.25
2023-03-04T11:51:49.750Z,100453.41
2023-03-04T11:54:32.927Z,100452.63
2023-03-04T11:57:07.792Z,100454.44
2023-03-04T11:59:40.605Z,100453.72
2023-03-04T12:02:16.384Z,100453.84
2023-03-04T12:05:18.678Z,100443.47
2023-03-04T12:08:03.743Z,100440.78
2023-03-04T12:10:32.945Z,100436.25
2023-03-04T12:13:31.088Z,100435.13
2023-03-04T12:16:09.802Z,100433.59
2023-03-04T12:18:55.227Z,100423.53
2023-03-04T12:21:49.395Z,100422.34
2023-03-04T12:24:15.941Z,100421.13
2023-03-04T12:26:45.001Z,100416.66
2023-03-04T12:29:20.412Z,100429.69
2023-03-04T12:31:53.019Z,100411.91
2023-03-04T12:34:22.534Z,100403.63
2023-03-04T12:37:05.292Z,100411.78
2023-03-04T12:39:50.893Z,100416.66
2023-03-04T12:42:41.014Z,100403.13
2023-03-04T12:45:13.547Z,100399.09
2023-03-04T12:48:07.997Z,100402.53
2023-03-04T12:51:08.606Z,100410.25
2023-03-04T12:53:52.904Z,100403.09
2023-03-04T12:56:47.079Z,100402.22
2023-03-04T12:59:22.489Z,100384.03
2023-03-04T13:02:04.418Z,100406.38
2023-03-04T13:05:10.009Z,100406.94
2023-03-04T13:07:59.709Z,100400.41
2023-03-04T13:10:26.324Z,100401.56
2023-03-04T13:12:56.242Z,100398.53
2023-03-04T13:15:23.009Z,100401.56
2023-03-04T13:17:55.170Z,100399.44
2023-03-04T13:20:30.718Z,100385.78
2023-03-04T13:22:58.377Z,100385.78
2023-03-04T13:25:30.114Z,100391.97
2023-03-04T13:28:05.510Z,100381.44
2023-03-04T13:30:31.935Z,100383.81
2023-03-04T13:33:18.811Z,100392.28
2023-03-04T13:36:03.054Z,100383.66
2023-03-04T13:38:33.306Z,100379.94
2023-03-04T13:41:22.703Z,100380.91
2023-03-04T13:43:54.526Z,100373.09
2023-03-04T13:46:21.641Z,100373.53
2023-03-04T13:48:51.332Z,100368.06
2023-03-04T13:51:32.985Z,100368.00
2023-03-04T13:53:59.460Z,100379.25
2023-03-04T13:56:37.116Z,100364.44
2023-03-04T13:59:07.192Z,100376.69
2023-03-04T14:01:39.424Z,100363.59
2023-03-04T14:04:27.177Z,100356.84
2023-03-04T14:06:55.846Z,100364.75
2023-03-04T14:09:25.256Z,100359.94
2023-03-04T14:11:54.017Z,100363.97
2023-03-04T14:14:26.489Z,100359.34
2023-03-04T14:17:02.857Z,100369.66
2023-03-04T14:19:35.978Z,100361.31
2023-03-04T14:22:02.549Z,100373.19
2023-03-04T14:24:30.901Z,100366.59
2023-03-04T14:27:11.808Z,100370.66
2023-03-04T14:29:38.405Z,100369.72
2023-03-04T14:32:06.331Z,100366.34
2023-03-04T14:34:38.441Z,100367.28
2023-03-04T14:37:21.248Z,100367.41
2023-03-04T14:39:50.696Z,100369.84
2023-03-04T14:42:20.029Z,100355.00
2023-03-04T14:44:49.966Z,100362.09
2023-03-04T14:47:28.816Z,100350.00
2023-03-04T14:49:55.490Z,100350.88
2023-03-04T14:52:34.252Z,100351.00
2023-03-04T14:55:22.983Z,100351.00
2023-03-04T14:58:13.641Z,100346.38
2023-03-04T15:00:41.000Z,100339.16
2023-03-04T15:03:21.851Z,100351.44
2023-03-04T15:05:48.901Z,100351.44
2023-03-04T15:08:29.081Z,100353.50
2023-03-04T15:10:58.959Z,100348.44
2023-03-04T15:13:43.813Z,100348.16
2023-03-04T15:16:12.981Z,100351.84
2023-03-04T15:18:52.995Z,100337.31
2023-03-04T15:21:19.275Z,100343.78
2023-03-04T15:23:46.044Z,100343.91
2023-03-04T15:26:13.285Z,100341.41
2023-03-04T15:28:44.195Z,100338.88
2023-03-04T15:31:17.174Z,100342.38
2023-03-04T15:33:43.717Z,100347.53
2023-03-04T15:36:15.356Z,100343.13
2023-03-04T15:38:45.031Z,100343.91
2023-03-04T15:41:13.752Z,100342.06
2023-03-04T15:43:40.073Z,100344.69
2023-03-04T15:46:06.442Z,100341.28
2023-03-04T15:48:32.845Z,100340.50
2023-03-04T15:51:03.181Z,100333.50
2023-03-04T15:53:37.828Z,100337.19
2023-03-04T15:56:07.543Z,100335.38
2023-03-04T15:58:35.242Z,100335.56
2023-03-04T16:01:01.886Z,100339.13
2023-03-04T16:03:28.441Z,100335.84
2023-03-04T16:05:54.820Z,100333.38
2023-03-04T16:08:24.927Z,100331.91
2023-03-04T16:10:52.632Z,100328.53
2023-03-04T16:13:21.786Z,100326.97
2023-03-04T16:15:48.644Z,100327.16
2023-03-04T16:18:16.126Z,100331.75
2023-03-04T16:20:45.908Z,100324.13
2023-03-04T16:23:19.599Z,100333.13
2023-03-04T16:25:48.237Z,100331.53
2023-03-04T16:28:14.597Z,100327.31
2023-03-04T16:30:41.672Z,100327.59
2023-03-04T16:33:08.083Z,100325.19
2023-03-04T16:35:36.592Z,100328.09
2023-03-04T16:38:03.234Z,100326.56
2023-03-04T16:40:30.880Z,100332.06
2023-03-04T16:42:57.581Z,100320.81
2023-03-04T16:45:30.186Z,100322.78
2023-03-04T16:47:56.764Z,100328.09
2023-03-04T16:50:27.035Z,100321.34
2023-03-04T16:52:55.365Z,100329.31
2023-03-04T16:55:25.075Z,100338.19
2023-03-04T16:57:52.106Z,100340.91
2023-03-04T17:00:20.204Z,100334.22
2023-03-04T17:02:59.106Z,100342.25
2023-03-04T17:05:29.228Z,100350.22
2023-03-04T17:07:55.843Z,100337.25
2023-03-04T17:10:23.046Z,100343.44
2023-03-04T17:12:50.787Z,100343.59
2023-03-04T17:15:17.932Z,100346.25
2023-03-04T17:17:44.808Z,100342.81
2023-03-04T17:20:14.132Z,100342.97
2023-03-04T17:22:42.264Z,100347.34
2023-03-04T17:25:09.639Z,100349.09
2023-03-04T17:27:37.049Z,100349.09
2023-03-04T17:30:05.847Z,100346.56
2023-03-04T17:32:32.692Z,100339.59
2023-03-04T17:34:59.812Z,100343.06
2023-03-04T17:37:26.861Z,100343.13
2023-03-04T17:39:53.564Z,100342.34
2023-03-04T17:42:20.705Z,100345.00
2023-03-04T17:44:47.521Z,100351.09
2023-03-04T17:47:15.943Z,100345.94
2023-03-04T17:49:42.454Z,100352.94
2023-03-04T17:52:08.977Z,100349.50
2023-03-04T17:54:36.565Z,100342.53
2023-03-04T17:57:03.041Z,100344.25
2023-03-04T17:59:29.609Z,100346.09
2023-03-04T18:01:56.039Z,100340.94
2023-03-04T18:04:22.890Z,100353.28
2023-03-04T18:06:49.316Z,100355.06
2023-03-04T18:09:15.767Z,100353.38
2023-03-04T18:11:42.555Z,100343.00
2023-03-04T18:14:09.028Z,100350.06
2023-03-04T18:16:35.452Z,100364.16
2023-03-04T18:19:02.612Z,100359.06
2023-03-04T18:21:29.892Z,100356.53
2023-03-04T18:23:56.484Z,100356.66
2023-03-04T18:26:23.484Z,100352.44
2023-03-04T18:28:51.406Z,100356.91
2023-03-04T18:31:19.968Z,100352.78
2023-03-04T18:33:47.037Z,100345.94
2023-03-04T18:36:14.195Z,100349.44
2023-03-04T18:38:40.912Z,100353.94
2023-03-04T18:41:10.270Z,100352.28
2023-03-04T18:43:36.798Z,100351.50
2023-03-04T18:46:09.814Z,100347.13
2023-03-04T18:48:41.796Z,100350.72
2023-03-04T18:51:08.164Z,100353.34
2023-03-04T18:53:34.636Z,100359.50
2023-03-04T18:56:07.658Z,100359.59
2023-03-04T18:58:34.989Z,100359.53
2023-03-04T19:01:04.833Z,100366.44
2023-03-04T19:03:34.199Z,100364.00
2023-03-04T19:06:01.245Z,100364.97
2023-03-04T19:08:27.798Z,100361.56
2023-03-04T19:10:54.389Z,100372.09
2023-03-04T19:13:22.557Z,100366.97
2023-03-04T19:15:53.336Z,100364.44
2023-03-04T19:18:20.399Z,100373.09
2023-03-04T19:20:46.940Z,100365.31
2023-03-04T19:23:15.371Z,100365.31
2023-03-04T19:25:43.512Z,100360.06
2023-03-04T19:28:11.034Z,100362.75
2023-03-04T19:30:39.284Z,100364.44
2023-03-04T19:33:05.963Z,100367.13
2023-03-04T19:35:32.718Z,100368.03
2023-03-04T19:38:00.836Z,100364.59
2023-03-04T19:40:28.096Z,100371.66
2023-03-04T19:42:56.380Z,100369.03
2023-03-04T19:45:22.827Z,100366.50
2023-03-04T19:47:49.314Z,100371.75
2023-03-04T19:50:16.218Z,100367.38
2023-03-04T19:52:43.330Z,100368.22
2023-03-04T19:55:12.716Z,100370.91
2023-03-04T19:57:41.727Z,100373.56
2023-03-04T20:00:10.423Z,100365.75
2023-03-04T20:02:36.877Z,100361.47
2023-03-04T20:05:03.803Z,100364.19
2023-03-04T20:07:30.202Z,100358.16
2023-03-04T20:09:56.722Z,100362.53
2023-03-04T20:12:23.453Z,100359.09
2023-03-04T20:14:51.291Z,100358.22
2023-03-04T20:17:18.178Z,100360.84
2023-03-04T20:19:44.595Z,100353.81
2023-03-04T20:22:13.239Z,100352.09
2023-03-04T20:24:39.617Z,100348.63
2023-03-04T20:27:06.075Z,100356.47
2023-03-04T20:29:32.473Z,100359.97
2023-03-04T20:31:59.231Z,100360.88
2023-03-04T20:34:26.933Z,100355.69
2023-03-04T20:36:53.306Z,100364.41
2023-03-04T20:39:28.725Z,100359.16
2023-03-04T20:41:59.694Z,100363.59
2023-03-04T20:44:27.122Z,100364.44
2023-03-04T20:46:53.580Z,100368.81
2023-03-04T20:49:23.947Z,100365.41
2023-03-04T20:51:52.038Z,100360.97
2023-03-04T20:54:18.477Z,100354.03
2023-03-04T20:56:45.218Z,100356.63
2023-03-04T20:59:12.131Z,100358.34
2023-03-04T21:01:41.433Z,100352.31
2023-03-04T21:04:08.727Z,100350.59
2023-03-04T21:06:36.318Z,100353.19
2023-03-04T21:09:05.417Z,100347.22
2023-03-04T21:11:32.329Z,100350.75
2023-03-04T21:13:58.891Z,100341.19
2023-03-04T21:16:29.671Z,100341.25
2023-03-04T21:18:56.335Z,100333.38
2023-03-04T21:21:26.625Z,100339.59
2023-03-04T21:23:54.996Z,100334.38
2023-03-04T21:26:22.782Z,100336.13
2023-03-04T21:28:50.892Z,100330.06
2023-03-04T21:31:26.626Z,100318.81
2023-03-04T21:33:54.437Z,100327.50
2023-03-04T21:36:21.062Z,100327.53
2023-03-04T21:38:48.765Z,100324.09
2023-03-04T21:41:20.936Z,100323.34
2023-03-04T21:43:48.166Z,100319.00
2023-03-04T21:46:16.951Z,100320.69
2023-03-04T21:48:44.889Z,100317.22
2023-03-04T21:51:13.548Z,100318.13
2023-03-04T21:53:40.371Z,100320.69
2023-03-04T21:56:07.051Z,100320.75
2023-03-04T21:58:35.328Z,100320.69
2023-03-04T22:01:12.673Z,100310.31
2023-03-04T22:03:39.901Z,100318.13
2023-03-04T22:06:08.462Z,100314.63
2023-03-04T22:08:35.420Z,100310.31
2023-03-04T22:11:07.658Z,100309.53
2023-03-04T22:13:34.525Z,100306.00
2023-03-04T22:16:01.204Z,100303.44
2023-03-04T22:18:28.006Z,100297.31
2023-03-04T22:21:04.629Z,100289.59
2023-03-04T22:23:31.381Z,100295.63
2023-03-04T22:26:05.455Z,100292.22
2023-03-04T22:28:32.736Z,100294.84
2023-03-04T22:30:59.950Z,100297.50
2023-03-04T22:33:26.571Z,100287.94
2023-03-04T22:35:53.628Z,100296.66
2023-03-04T22:38:22.024Z,100295.88
2023-03-04T22:40:49.191Z,100291.56
2023-03-04T22:43:15.771Z,100288.06
2023-03-04T22:45:42.348Z,100277.69
2023-03-04T22:48:08.856Z,100270.75
2023-03-04T22:50:36.088Z,100278.66
2023-03-04T22:53:02.661Z,100277.88
2023-03-04T22:55:29.117Z,100277.91
2023-03-04T22:57:55.648Z,100273.59
2023-03-04T23:00:24.786Z,100273.63
2023-03-04T23:02:51.922Z,100270.19
2023-03-04T23:05:21.753Z,100269.31
2023-03-04T23:07:49.792Z,100268.44
2023-03-04T23:10:23.070Z,100261.50
2023-03-04T23:12:50.134Z,100262.31
2023-03-04T23:15:19.037Z,100252.75
2023-03-04T23:17:46.304Z,100255.38
2023-03-04T23:20:15.973Z,100253.66
2023-03-04T23:22:42.511Z,100244.94
2023-03-04T23:25:09.366Z,100248.47
2023-03-04T23:27:37.810Z,100249.34
2023-03-04T23:30:06.935Z,100238.94
2023-03-04T23:32:33.396Z,100239.78
2023-03-04T23:35:00.015Z,100241.56
2023-03-04T23:37:26.552Z,100245.91
2023-03-04T23:39:53.151Z,100245.91
2023-03-04T23:42:19.600Z,100230.19
2023-03-04T23:44:46.200Z,100240.69
2023-03-04T23:47:12.742Z,100234.59
2023-03-04T23:49:39.513Z,100231.13
2023-03-04T23:52:06.382Z,100237.19
2023-03-04T23:54:32.923Z,100236.34
2023-03-04T23:57:00.939Z,100241.59
2023-03-04T23:59:28.759Z,100233.78
